Fykan — LLDJ — position and weather

sailwx.info

Track history (hours):
 
Tides and Currents Weather Stations Pressure Air Temp Water Temp Dewpoint Dewpoint Depression Visibility Wind Speed Wind Dir Waves Ship Positions

Fykan

Last reported at 2014-Oct-25 10:16 UTC. Time now 2014-Oct-26 06:04 UTC.
Position N 66°34' E 012°50'.

Length 52 m; draft 3.3 m.

Type: Ship. MMSI: 259681000.

Date/timePositionNaut miles runAvg speedWind from/ knotsBaromVisibWave heightAir tempDewpointWater temp
2014-Oct-25 10:16N 66°34' E 012°50'4 1.0
2014-Oct-25 06:19N 66°36' E 012°59'4 5.4
2014-Oct-25 05:33N 66°34' E 012°50'4 0.4
2014-Oct-24 21:05N 66°35' E 012°42'5 1.1
2014-Oct-24 16:33N 66°34' E 012°54'2 0.3
2014-Oct-24 10:28N 66°34' E 012°58'2 0.4
2014-Oct-24 05:16N 66°36' E 012°59'5 6.2
2014-Oct-24 04:30N 66°34' E 012°49'1 0.1
2014-Oct-23 18:29N 66°34' E 012°47'5 5.4
2014-Oct-23 17:33N 66°35' E 012°59'0 0.1
2014-Oct-23 14:30N 66°35' E 012°59'5 5.3
2014-Oct-23 13:33N 66°34' E 012°46'2 0.7
2014-Oct-23 10:28N 66°34' E 012°52'3 0.8
2014-Oct-23 06:20N 66°36' E 012°59'5 5.6
2014-Oct-23 05:30N 66°34' E 012°49'4 0.4
2014-Oct-22 20:18N 66°34' E 012°58'2 0.3
2014-Oct-22 14:30N 66°36' E 012°59'5 5.6
2014-Oct-22 13:33N 66°34' E 012°46'1 0.2
2014-Oct-22 10:32N 66°35' E 012°45'6 5.6
2014-Oct-22 09:32N 66°35' E 012°59'1 0.2
2014-Oct-22 06:24N 66°36' E 012°59'5 5.3
2014-Oct-22 05:32N 66°34' E 012°49'3 0.4
2014-Oct-21 20:32N 66°36' E 012°43'6 1.8
2014-Oct-21 17:05N 66°36' E 012°59'4 5.9
2014-Oct-21 16:24N 66°34' E 012°50'4 0.7
2014-Oct-21 11:07N 66°35' E 012°42'5 7.6
2014-Oct-21 10:29N 66°34' E 012°54'3 0.5
2014-Oct-21 05:16N 66°36' E 012°59'4 5.8
2014-Oct-21 04:33N 66°34' E 012°50'2 0.2
2014-Oct-20 18:08N 66°34' E 012°47'5 1.4
2014-Oct-20 14:25N 66°36' E 012°59'5 5.6
2014-Oct-20 13:33N 66°34' E 012°47'4 1.4
2014-Oct-20 10:28N 66°34' E 012°58'2 0.5
2014-Oct-20 06:23N 66°36' E 012°59'4 5.0
2014-Oct-20 05:32N 66°34' E 012°50'3 0.4
2014-Oct-19 21:19N 66°35' E 012°42'7 8.1
2014-Oct-19 20:31N 66°34' E 012°59'5 2.4
2014-Oct-19 18:30N 66°34' E 013°11'5 1.6
2014-Oct-19 15:18N 66°36' E 012°59'4 5.6
2014-Oct-19 14:33N 66°34' E 012°50'4 0.2
2014-Oct-18 13:05N 66°36' E 012°41'4 7.9
2014-Oct-18 12:33N 66°34' E 012°50'8 2.5
2014-Oct-18 09:12N 66°33' E 013°12'6 2.0
2014-Oct-18 06:21N 66°36' E 012°59'4 5.1
2014-Oct-18 05:31N 66°34' E 012°50'1 0.2
2014-Oct-17 20:33N 66°34' E 012°47'3 0.7
2014-Oct-17 16:31N 66°34' E 012°54'2 0.3
2014-Oct-17 10:29N 66°34' E 012°49'5 0.9
2014-Oct-17 05:09N 66°36' E 012°59'4 6.6
2014-Oct-17 04:31N 66°34' E 012°50'2 0.2
2014-Oct-16 18:23N 66°34' E 012°47'5 5.9
2014-Oct-16 17:33N 66°35' E 012°59'1 0.4
2014-Oct-16 14:24N 66°36' E 012°59'5 5.9
2014-Oct-16 13:33N 66°34' E 012°48'2 0.8
2014-Oct-16 10:32N 66°34' E 012°53'3 0.7
2014-Oct-16 06:21N 66°36' E 012°59'4 5.2
2014-Oct-16 05:33N 66°34' E 012°50'4 0.5
2014-Oct-15 20:32N 66°36' E 012°42'7 1.1
2014-Oct-15 14:23N 66°36' E 012°59'5 6.1
2014-Oct-15 13:32N 66°34' E 012°47'0 0.1
2014-Oct-15 10:31N 66°34' E 012°47'  
Track history (hours):
 
Tides and Currents Weather Stations Pressure Air Temp Water Temp Dewpoint Dewpoint Depression Visibility Wind Speed Wind Dir Waves Ship Positions

Fykan

Last reported at 2014-Oct-25 10:16 UTC. Time now 2014-Oct-26 06:04 UTC.
Position N 66°34' E 012°50'.

Length 52 m; draft 3.3 m.

Type: Ship. MMSI: 259681000.

Date/timePositionNaut miles runAvg speedWind from/ knotsBaromVisibWave heightAir tempDewpointWater temp
2014-Oct-25 10:16N 66°34' E 012°50'4 1.0
2014-Oct-25 06:19N 66°36' E 012°59'4 5.4
2014-Oct-25 05:33N 66°34' E 012°50'4 0.4
2014-Oct-24 21:05N 66°35' E 012°42'5 1.1
2014-Oct-24 16:33N 66°34' E 012°54'2 0.3
2014-Oct-24 10:28N 66°34' E 012°58'2 0.4
2014-Oct-24 05:16N 66°36' E 012°59'5 6.2
2014-Oct-24 04:30N 66°34' E 012°49'1 0.1
2014-Oct-23 18:29N 66°34' E 012°47'5 5.4
2014-Oct-23 17:33N 66°35' E 012°59'0 0.1
2014-Oct-23 14:30N 66°35' E 012°59'5 5.3
2014-Oct-23 13:33N 66°34' E 012°46'2 0.7
2014-Oct-23 10:28N 66°34' E 012°52'3 0.8
2014-Oct-23 06:20N 66°36' E 012°59'5 5.6
2014-Oct-23 05:30N 66°34' E 012°49'4 0.4
2014-Oct-22 20:18N 66°34' E 012°58'2 0.3
2014-Oct-22 14:30N 66°36' E 012°59'5 5.6
2014-Oct-22 13:33N 66°34' E 012°46'1 0.2
2014-Oct-22 10:32N 66°35' E 012°45'6 5.6
2014-Oct-22 09:32N 66°35' E 012°59'1 0.2
2014-Oct-22 06:24N 66°36' E 012°59'5 5.3
2014-Oct-22 05:32N 66°34' E 012°49'3 0.4
2014-Oct-21 20:32N 66°36' E 012°43'6 1.8
2014-Oct-21 17:05N 66°36' E 012°59'4 5.9
2014-Oct-21 16:24N 66°34' E 012°50'4 0.7
2014-Oct-21 11:07N 66°35' E 012°42'5 7.6
2014-Oct-21 10:29N 66°34' E 012°54'3 0.5
2014-Oct-21 05:16N 66°36' E 012°59'4 5.8
2014-Oct-21 04:33N 66°34' E 012°50'2 0.2
2014-Oct-20 18:08N 66°34' E 012°47'5 1.4
2014-Oct-20 14:25N 66°36' E 012°59'5 5.6
2014-Oct-20 13:33N 66°34' E 012°47'4 1.4
2014-Oct-20 10:28N 66°34' E 012°58'2 0.5
2014-Oct-20 06:23N 66°36' E 012°59'4 5.0
2014-Oct-20 05:32N 66°34' E 012°50'3 0.4
2014-Oct-19 21:19N 66°35' E 012°42'7 8.1
2014-Oct-19 20:31N 66°34' E 012°59'5 2.4
2014-Oct-19 18:30N 66°34' E 013°11'5 1.6
2014-Oct-19 15:18N 66°36' E 012°59'4 5.6
2014-Oct-19 14:33N 66°34' E 012°50'4 0.2
2014-Oct-18 13:05N 66°36' E 012°41'4 7.9
2014-Oct-18 12:33N 66°34' E 012°50'8 2.5
2014-Oct-18 09:12N 66°33' E 013°12'6 2.0
2014-Oct-18 06:21N 66°36' E 012°59'4 5.1
2014-Oct-18 05:31N 66°34' E 012°50'1 0.2
2014-Oct-17 20:33N 66°34' E 012°47'3 0.7
2014-Oct-17 16:31N 66°34' E 012°54'2 0.3
2014-Oct-17 10:29N 66°34' E 012°49'5 0.9
2014-Oct-17 05:09N 66°36' E 012°59'4 6.6
2014-Oct-17 04:31N 66°34' E 012°50'2 0.2
2014-Oct-16 18:23N 66°34' E 012°47'5 5.9
2014-Oct-16 17:33N 66°35' E 012°59'1 0.4
2014-Oct-16 14:24N 66°36' E 012°59'5 5.9
2014-Oct-16 13:33N 66°34' E 012°48'2 0.8
2014-Oct-16 10:32N 66°34' E 012°53'3 0.7
2014-Oct-16 06:21N 66°36' E 012°59'4 5.2
2014-Oct-16 05:33N 66°34' E 012°50'4 0.5
2014-Oct-15 20:32N 66°36' E 012°42'7 1.1
2014-Oct-15 14:23N 66°36' E 012°59'5 6.1
2014-Oct-15 13:32N 66°34' E 012°47'0 0.1
2014-Oct-15 10:31N 66°34' E 012°47'  

Dump ship's entire track history